sensor_id;sensor_type;location;lat;lon;timestamp;P1;durP1;ratioP1;P2;durP2;ratioP2
55913;SDS011;58179;48.776;9.124;2024-02-28T00:09:59;34.58;;;20.13;;
55913;SDS011;58179;48.776;9.124;2024-02-28T00:12:25;32.50;;;18.80;;
55913;SDS011;58179;48.776;9.124;2024-02-28T00:14:52;33.05;;;18.25;;
55913;SDS011;58179;48.776;9.124;2024-02-28T02:38:29;34.20;;;18.73;;
55913;SDS011;58179;48.776;9.124;2024-02-28T02:40:56;33.85;;;18.02;;
55913;SDS011;58179;48.776;9.124;2024-02-28T02:43:22;33.43;;;18.63;;
55913;SDS011;58179;48.776;9.124;2024-02-28T02:48:24;37.23;;;20.03;;
55913;SDS011;58179;48.776;9.124;2024-02-28T03:16:41;39.22;;;22.10;;
55913;SDS011;58179;48.776;9.124;2024-02-28T03:19:08;37.88;;;20.98;;
55913;SDS011;58179;48.776;9.124;2024-02-28T03:21:34;38.75;;;20.52;;
55913;SDS011;58179;48.776;9.124;2024-02-28T03:24:01;32.67;;;19.38;;
55913;SDS011;58179;48.776;9.124;2024-02-28T03:26:27;31.23;;;17.53;;
55913;SDS011;58179;48.776;9.124;2024-02-28T03:28:53;30.15;;;17.23;;
55913;SDS011;58179;48.776;9.124;2024-02-28T03:31:19;35.92;;;18.45;;
55913;SDS011;58179;48.776;9.124;2024-02-28T03:33:46;36.75;;;19.20;;
55913;SDS011;58179;48.776;9.124;2024-02-28T03:36:13;35.40;;;18.42;;
55913;SDS011;58179;48.776;9.124;2024-02-28T03:38:39;32.88;;;18.23;;
55913;SDS011;58179;48.776;9.124;2024-02-28T03:41:05;31.33;;;17.53;;
55913;SDS011;58179;48.776;9.124;2024-02-28T03:43:32;39.65;;;20.70;;
55913;SDS011;58179;48.776;9.124;2024-02-28T03:45:58;32.10;;;17.67;;
55913;SDS011;58179;48.776;9.124;2024-02-28T03:48:24;41.85;;;22.67;;
55913;SDS011;58179;48.776;9.124;2024-02-28T03:50:51;35.40;;;19.75;;
55913;SDS011;58179;48.776;9.124;2024-02-28T03:53:18;31.47;;;17.23;;
55913;SDS011;58179;48.776;9.124;2024-02-28T03:55:44;42.65;;;21.65;;
55913;SDS011;58179;48.776;9.124;2024-02-28T03:58:10;34.33;;;19.30;;
55913;SDS011;58179;48.776;9.124;2024-02-28T04:00:36;43.63;;;22.63;;
55913;SDS011;58179;48.776;9.124;2024-02-28T04:03:03;36.65;;;19.98;;
55913;SDS011;58179;48.776;9.124;2024-02-28T04:05:30;38.40;;;20.33;;
55913;SDS011;58179;48.776;9.124;2024-02-28T04:07:57;34.05;;;18.60;;
55913;SDS011;58179;48.776;9.124;2024-02-28T04:10:23;37.85;;;20.90;;
55913;SDS011;58179;48.776;9.124;2024-02-28T04:12:49;40.15;;;21.50;;
55913;SDS011;58179;48.776;9.124;2024-02-28T04:15:16;38.72;;;20.40;;
55913;SDS011;58179;48.776;9.124;2024-02-28T04:17:42;38.10;;;20.70;;
55913;SDS011;58179;48.776;9.124;2024-02-28T04:20:08;40.08;;;21.25;;
55913;SDS011;58179;48.776;9.124;2024-02-28T04:22:35;41.77;;;21.53;;
55913;SDS011;58179;48.776;9.124;2024-02-28T04:25:03;40.42;;;20.63;;
55913;SDS011;58179;48.776;9.124;2024-02-28T04:27:29;41.15;;;21.00;;
55913;SDS011;58179;48.776;9.124;2024-02-28T04:29:56;35.65;;;20.45;;
55913;SDS011;58179;48.776;9.124;2024-02-28T04:32:22;43.00;;;22.20;;
55913;SDS011;58179;48.776;9.124;2024-02-28T04:34:48;39.35;;;20.52;;
55913;SDS011;58179;48.776;9.124;2024-02-28T04:37:14;41.15;;;21.67;;
55913;SDS011;58179;48.776;9.124;2024-02-28T04:39:40;39.88;;;21.95;;
55913;SDS011;58179;48.776;9.124;2024-02-28T04:42:08;37.22;;;19.35;;
55913;SDS011;58179;48.776;9.124;2024-02-28T04:44:34;34.35;;;18.85;;
55913;SDS011;58179;48.776;9.124;2024-02-28T04:47:01;30.83;;;17.63;;
55913;SDS011;58179;48.776;9.124;2024-02-28T04:49:27;34.25;;;19.10;;
55913;SDS011;58179;48.776;9.124;2024-02-28T04:51:53;37.60;;;19.67;;
55913;SDS011;58179;48.776;9.124;2024-02-28T04:54:20;43.83;;;22.92;;
55913;SDS011;58179;48.776;9.124;2024-02-28T04:56:46;39.60;;;21.02;;
55913;SDS011;58179;48.776;9.124;2024-02-28T05:01:49;41.70;;;23.05;;
55913;SDS011;58179;48.776;9.124;2024-02-28T05:04:20;38.53;;;21.67;;
55913;SDS011;58179;48.776;9.124;2024-02-28T05:06:47;41.07;;;23.03;;
55913;SDS011;58179;48.776;9.124;2024-02-28T05:11:47;36.65;;;20.55;;
55913;SDS011;58179;48.776;9.124;2024-02-28T05:16:51;37.10;;;20.95;;
55913;SDS011;58179;48.776;9.124;2024-02-28T05:35:30;42.55;;;23.50;;
55913;SDS011;58179;48.776;9.124;2024-02-28T05:37:56;44.38;;;23.27;;
55913;SDS011;58179;48.776;9.124;2024-02-28T05:40:22;39.58;;;21.17;;
55913;SDS011;58179;48.776;9.124;2024-02-28T05:42:49;41.13;;;21.92;;
55913;SDS011;58179;48.776;9.124;2024-02-28T05:45:15;38.35;;;21.50;;
55913;SDS011;58179;48.776;9.124;2024-02-28T05:47:41;38.88;;;21.67;;
55913;SDS011;58179;48.776;9.124;2024-02-28T05:50:08;33.72;;;19.17;;
55913;SDS011;58179;48.776;9.124;2024-02-28T05:52:36;37.70;;;20.60;;
55913;SDS011;58179;48.776;9.124;2024-02-28T05:55:02;36.90;;;20.88;;
55913;SDS011;58179;48.776;9.124;2024-02-28T05:57:29;42.93;;;21.60;;
55913;SDS011;58179;48.776;9.124;2024-02-28T05:59:55;45.78;;;24.42;;
55913;SDS011;58179;48.776;9.124;2024-02-28T06:02:24;43.85;;;23.95;;
55913;SDS011;58179;48.776;9.124;2024-02-28T06:04:50;37.80;;;22.02;;
55913;SDS011;58179;48.776;9.124;2024-02-28T06:07:17;35.27;;;20.90;;
55913;SDS011;58179;48.776;9.124;2024-02-28T06:09:45;37.03;;;20.55;;
55913;SDS011;58179;48.776;9.124;2024-02-28T06:12:11;40.80;;;22.45;;
55913;SDS011;58179;48.776;9.124;2024-02-28T06:14:37;39.85;;;20.83;;
55913;SDS011;58179;48.776;9.124;2024-02-28T06:17:03;37.03;;;21.17;;
55913;SDS011;58179;48.776;9.124;2024-02-28T06:19:30;34.38;;;20.73;;
55913;SDS011;58179;48.776;9.124;2024-02-28T06:21:56;37.83;;;21.02;;
55913;SDS011;58179;48.776;9.124;2024-02-28T06:24:22;37.67;;;21.65;;
55913;SDS011;58179;48.776;9.124;2024-02-28T06:26:49;41.30;;;22.70;;
55913;SDS011;58179;48.776;9.124;2024-02-28T06:29:16;42.00;;;21.45;;
55913;SDS011;58179;48.776;9.124;2024-02-28T06:31:42;44.65;;;23.55;;
55913;SDS011;58179;48.776;9.124;2024-02-28T06:34:08;45.15;;;25.27;;
55913;SDS011;58179;48.776;9.124;2024-02-28T06:36:34;37.50;;;22.33;;
55913;SDS011;58179;48.776;9.124;2024-02-28T06:39:00;44.15;;;22.60;;
55913;SDS011;58179;48.776;9.124;2024-02-28T06:41:26;40.55;;;21.80;;
55913;SDS011;58179;48.776;9.124;2024-02-28T06:43:54;38.70;;;21.85;;
55913;SDS011;58179;48.776;9.124;2024-02-28T06:46:20;36.50;;;20.98;;
55913;SDS011;58179;48.776;9.124;2024-02-28T06:48:46;36.80;;;20.23;;
55913;SDS011;58179;48.776;9.124;2024-02-28T06:51:12;34.33;;;19.50;;
55913;SDS011;58179;48.776;9.124;2024-02-28T06:53:40;34.30;;;19.60;;
55913;SDS011;58179;48.776;9.124;2024-02-28T06:56:06;37.33;;;21.10;;
55913;SDS011;58179;48.776;9.124;2024-02-28T06:58:33;41.53;;;22.38;;
55913;SDS011;58179;48.776;9.124;2024-02-28T07:01:00;38.53;;;21.42;;
55913;SDS011;58179;48.776;9.124;2024-02-28T07:03:27;33.17;;;19.13;;
55913;SDS011;58179;48.776;9.124;2024-02-28T07:05:53;29.55;;;17.60;;
55913;SDS011;58179;48.776;9.124;2024-02-28T07:08:19;28.98;;;16.90;;
55913;SDS011;58179;48.776;9.124;2024-02-28T07:10:46;35.90;;;20.20;;
55913;SDS011;58179;48.776;9.124;2024-02-28T07:13:14;41.05;;;23.42;;
55913;SDS011;58179;48.776;9.124;2024-02-28T07:15:41;43.47;;;24.63;;
55913;SDS011;58179;48.776;9.124;2024-02-28T07:18:08;40.15;;;22.92;;
55913;SDS011;58179;48.776;9.124;2024-02-28T07:20:34;39.57;;;22.40;;
55913;SDS011;58179;48.776;9.124;2024-02-28T07:23:00;37.42;;;20.90;;
55913;SDS011;58179;48.776;9.124;2024-02-28T07:25:27;36.20;;;20.60;;
55913;SDS011;58179;48.776;9.124;2024-02-28T07:27:53;32.40;;;18.67;;
55913;SDS011;58179;48.776;9.124;2024-02-28T07:30:21;31.80;;;17.60;;
55913;SDS011;58179;48.776;9.124;2024-02-28T07:32:47;31.10;;;17.70;;
55913;SDS011;58179;48.776;9.124;2024-02-28T07:35:15;32.08;;;17.30;;
55913;SDS011;58179;48.776;9.124;2024-02-28T07:37:41;26.38;;;15.98;;
55913;SDS011;58179;48.776;9.124;2024-02-28T07:40:08;30.48;;;16.63;;
55913;SDS011;58179;48.776;9.124;2024-02-28T07:42:34;31.53;;;18.90;;
55913;SDS011;58179;48.776;9.124;2024-02-28T07:45:00;34.55;;;20.00;;
55913;SDS011;58179;48.776;9.124;2024-02-28T07:47:27;35.08;;;20.30;;
55913;SDS011;58179;48.776;9.124;2024-02-28T07:49:54;35.22;;;20.30;;
55913;SDS011;58179;48.776;9.124;2024-02-28T07:52:23;33.70;;;19.88;;
55913;SDS011;58179;48.776;9.124;2024-02-28T07:54:49;35.58;;;20.55;;
55913;SDS011;58179;48.776;9.124;2024-02-28T07:57:15;35.38;;;20.98;;
55913;SDS011;58179;48.776;9.124;2024-02-28T07:59:42;34.80;;;19.45;;
55913;SDS011;58179;48.776;9.124;2024-02-28T08:02:09;35.20;;;20.38;;
55913;SDS011;58179;48.776;9.124;2024-02-28T08:04:37;35.28;;;19.98;;
55913;SDS011;58179;48.776;9.124;2024-02-28T08:07:04;49.42;;;26.58;;
55913;SDS011;58179;48.776;9.124;2024-02-28T08:09:31;41.93;;;23.43;;
55913;SDS011;58179;48.776;9.124;2024-02-28T08:11:57;37.53;;;21.95;;
55913;SDS011;58179;48.776;9.124;2024-02-28T08:14:24;37.10;;;20.58;;
55913;SDS011;58179;48.776;9.124;2024-02-28T08:16:50;32.60;;;19.00;;
55913;SDS011;58179;48.776;9.124;2024-02-28T08:19:16;31.40;;;18.63;;
55913;SDS011;58179;48.776;9.124;2024-02-28T08:21:42;36.72;;;21.50;;
55913;SDS011;58179;48.776;9.124;2024-02-28T08:24:09;32.40;;;19.58;;
55913;SDS011;58179;48.776;9.124;2024-02-28T08:26:36;32.30;;;18.77;;
55913;SDS011;58179;48.776;9.124;2024-02-28T08:29:04;30.75;;;18.50;;
55913;SDS011;58179;48.776;9.124;2024-02-28T08:31:30;35.10;;;19.52;;
55913;SDS011;58179;48.776;9.124;2024-02-28T08:33:57;29.92;;;18.00;;
55913;SDS011;58179;48.776;9.124;2024-02-28T08:36:23;28.65;;;17.00;;
55913;SDS011;58179;48.776;9.124;2024-02-28T08:38:49;30.27;;;17.55;;
55913;SDS011;58179;48.776;9.124;2024-02-28T08:41:16;36.30;;;21.05;;
55913;SDS011;58179;48.776;9.124;2024-02-28T08:43:44;34.97;;;20.33;;
55913;SDS011;58179;48.776;9.124;2024-02-28T08:46:13;31.33;;;18.45;;
55913;SDS011;58179;48.776;9.124;2024-02-28T08:48:41;31.17;;;18.35;;
55913;SDS011;58179;48.776;9.124;2024-02-28T08:51:08;35.40;;;20.85;;
55913;SDS011;58179;48.776;9.124;2024-02-28T08:53:34;32.13;;;18.70;;
55913;SDS011;58179;48.776;9.124;2024-02-28T08:56:00;42.38;;;22.50;;
55913;SDS011;58179;48.776;9.124;2024-02-28T08:58:26;38.77;;;21.60;;
55913;SDS011;58179;48.776;9.124;2024-02-28T09:00:54;37.35;;;20.67;;
55913;SDS011;58179;48.776;9.124;2024-02-28T09:03:20;40.40;;;21.83;;
55913;SDS011;58179;48.776;9.124;2024-02-28T09:05:47;39.67;;;21.83;;
55913;SDS011;58179;48.776;9.124;2024-02-28T09:08:13;37.58;;;21.52;;
55913;SDS011;58179;48.776;9.124;2024-02-28T09:10:39;38.60;;;21.77;;
55913;SDS011;58179;48.776;9.124;2024-02-28T09:13:06;37.92;;;21.13;;
55913;SDS011;58179;48.776;9.124;2024-02-28T09:15:32;37.97;;;21.50;;
55913;SDS011;58179;48.776;9.124;2024-02-28T09:18:00;33.15;;;18.95;;
55913;SDS011;58179;48.776;9.124;2024-02-28T09:20:27;34.63;;;19.48;;
55913;SDS011;58179;48.776;9.124;2024-02-28T09:22:53;38.70;;;21.45;;
55913;SDS011;58179;48.776;9.124;2024-02-28T09:25:19;37.95;;;21.05;;
55913;SDS011;58179;48.776;9.124;2024-02-28T09:27:46;37.30;;;20.90;;
55913;SDS011;58179;48.776;9.124;2024-02-28T09:30:12;34.10;;;19.25;;
55913;SDS011;58179;48.776;9.124;2024-02-28T09:32:39;31.27;;;17.77;;
55913;SDS011;58179;48.776;9.124;2024-02-28T09:35:08;30.10;;;18.20;;
55913;SDS011;58179;48.776;9.124;2024-02-28T09:37:36;32.60;;;18.63;;
55913;SDS011;58179;48.776;9.124;2024-02-28T09:40:03;29.38;;;17.30;;
55913;SDS011;58179;48.776;9.124;2024-02-28T09:42:33;37.55;;;21.02;;
55913;SDS011;58179;48.776;9.124;2024-02-28T09:44:59;36.23;;;19.97;;
55913;SDS011;58179;48.776;9.124;2024-02-28T09:47:29;40.47;;;22.77;;
55913;SDS011;58179;48.776;9.124;2024-02-28T09:49:55;38.30;;;21.77;;
55913;SDS011;58179;48.776;9.124;2024-02-28T09:52:27;32.15;;;19.08;;
55913;SDS011;58179;48.776;9.124;2024-02-28T09:54:53;30.48;;;17.95;;
55913;SDS011;58179;48.776;9.124;2024-02-28T09:57:19;27.08;;;15.52;;
55913;SDS011;58179;48.776;9.124;2024-02-28T09:59:53;25.48;;;15.07;;
55913;SDS011;58179;48.776;9.124;2024-02-28T10:02:20;25.15;;;14.07;;
55913;SDS011;58179;48.776;9.124;2024-02-28T10:04:54;21.92;;;13.52;;
55913;SDS011;58179;48.776;9.124;2024-02-28T10:07:25;24.37;;;14.80;;
55913;SDS011;58179;48.776;9.124;2024-02-28T10:09:53;25.00;;;14.53;;
55913;SDS011;58179;48.776;9.124;2024-02-28T10:12:20;24.08;;;14.50;;
55913;SDS011;58179;48.776;9.124;2024-02-28T10:14:48;25.20;;;15.23;;
55913;SDS011;58179;48.776;9.124;2024-02-28T10:17:16;32.38;;;17.23;;
55913;SDS011;58179;48.776;9.124;2024-02-28T10:19:42;26.83;;;15.57;;
55913;SDS011;58179;48.776;9.124;2024-02-28T10:22:08;25.75;;;15.65;;
55913;SDS011;58179;48.776;9.124;2024-02-28T10:24:35;21.67;;;14.13;;
55913;SDS011;58179;48.776;9.124;2024-02-28T10:27:02;25.83;;;14.82;;
55913;SDS011;58179;48.776;9.124;2024-02-28T10:29:29;25.63;;;14.82;;
55913;SDS011;58179;48.776;9.124;2024-02-28T10:31:59;24.77;;;14.77;;
55913;SDS011;58179;48.776;9.124;2024-02-28T10:34:26;19.87;;;12.40;;
55913;SDS011;58179;48.776;9.124;2024-02-28T10:36:53;20.70;;;12.52;;
55913;SDS011;58179;48.776;9.124;2024-02-28T10:39:19;20.92;;;12.07;;
55913;SDS011;58179;48.776;9.124;2024-02-28T10:41:48;19.97;;;11.97;;
55913;SDS011;58179;48.776;9.124;2024-02-28T10:44:17;24.13;;;15.13;;
55913;SDS011;58179;48.776;9.124;2024-02-28T10:46:45;35.17;;;19.50;;
55913;SDS011;58179;48.776;9.124;2024-02-28T10:49:15;29.67;;;17.67;;
55913;SDS011;58179;48.776;9.124;2024-02-28T10:51:41;23.42;;;14.13;;
55913;SDS011;58179;48.776;9.124;2024-02-28T10:54:13;22.40;;;13.48;;
55913;SDS011;58179;48.776;9.124;2024-02-28T10:56:40;20.02;;;12.93;;
55913;SDS011;58179;48.776;9.124;2024-02-28T10:59:09;20.25;;;11.45;;
55913;SDS011;58179;48.776;9.124;2024-02-28T11:01:38;16.23;;;10.70;;
55913;SDS011;58179;48.776;9.124;2024-02-28T11:04:08;16.20;;;10.50;;
55913;SDS011;58179;48.776;9.124;2024-02-28T11:06:46;18.60;;;12.13;;
55913;SDS011;58179;48.776;9.124;2024-02-28T11:09:18;27.45;;;14.68;;
55913;SDS011;58179;48.776;9.124;2024-02-28T11:11:47;26.20;;;15.43;;
55913;SDS011;58179;48.776;9.124;2024-02-28T11:14:15;21.95;;;14.00;;
55913;SDS011;58179;48.776;9.124;2024-02-28T11:16:42;21.85;;;13.13;;
55913;SDS011;58179;48.776;9.124;2024-02-28T11:19:18;23.90;;;13.60;;
55913;SDS011;58179;48.776;9.124;2024-02-28T11:21:51;22.33;;;13.23;;
55913;SDS011;58179;48.776;9.124;2024-02-28T11:24:22;21.85;;;12.60;;
55913;SDS011;58179;48.776;9.124;2024-02-28T11:26:49;22.02;;;12.88;;
55913;SDS011;58179;48.776;9.124;2024-02-28T11:29:17;22.37;;;13.87;;
55913;SDS011;58179;48.776;9.124;2024-02-28T11:31:48;24.10;;;15.10;;
55913;SDS011;58179;48.776;9.124;2024-02-28T11:34:14;28.90;;;16.63;;
55913;SDS011;58179;48.776;9.124;2024-02-28T11:36:41;34.70;;;20.25;;
55913;SDS011;58179;48.776;9.124;2024-02-28T11:39:07;30.33;;;17.27;;
55913;SDS011;58179;48.776;9.124;2024-02-28T11:41:33;26.42;;;15.63;;
55913;SDS011;58179;48.776;9.124;2024-02-28T11:43:59;33.47;;;20.00;;
55913;SDS011;58179;48.776;9.124;2024-02-28T11:46:27;28.38;;;17.38;;
55913;SDS011;58179;48.776;9.124;2024-02-28T11:48:53;30.73;;;17.42;;
55913;SDS011;58179;48.776;9.124;2024-02-28T11:51:20;30.85;;;17.67;;
55913;SDS011;58179;48.776;9.124;2024-02-28T11:53:46;28.92;;;17.15;;
55913;SDS011;58179;48.776;9.124;2024-02-28T11:56:13;34.67;;;19.08;;
55913;SDS011;58179;48.776;9.124;2024-02-28T11:58:48;27.83;;;17.00;;
55913;SDS011;58179;48.776;9.124;2024-02-28T12:01:15;32.38;;;18.67;;
55913;SDS011;58179;48.776;9.124;2024-02-28T12:03:45;24.08;;;14.88;;
55913;SDS011;58179;48.776;9.124;2024-02-28T12:06:12;24.13;;;13.60;;
55913;SDS011;58179;48.776;9.124;2024-02-28T12:08:38;18.95;;;12.02;;
55913;SDS011;58179;48.776;9.124;2024-02-28T12:11:07;27.80;;;16.65;;
55913;SDS011;58179;48.776;9.124;2024-02-28T12:13:35;30.63;;;17.98;;
55913;SDS011;58179;48.776;9.124;2024-02-28T12:16:03;27.73;;;15.87;;
55913;SDS011;58179;48.776;9.124;2024-02-28T12:18:29;29.85;;;17.92;;
55913;SDS011;58179;48.776;9.124;2024-02-28T12:20:57;35.22;;;20.23;;
55913;SDS011;58179;48.776;9.124;2024-02-28T12:23:23;34.20;;;18.85;;
55913;SDS011;58179;48.776;9.124;2024-02-28T12:25:50;27.42;;;16.25;;
55913;SDS011;58179;48.776;9.124;2024-02-28T12:28:16;26.10;;;15.68;;
55913;SDS011;58179;48.776;9.124;2024-02-28T12:30:42;24.52;;;14.48;;
55913;SDS011;58179;48.776;9.124;2024-02-28T12:33:09;26.70;;;13.65;;
55913;SDS011;58179;48.776;9.124;2024-02-28T12:35:36;22.17;;;13.20;;
55913;SDS011;58179;48.776;9.124;2024-02-28T12:38:04;21.27;;;13.00;;
55913;SDS011;58179;48.776;9.124;2024-02-28T12:40:30;20.30;;;11.77;;
55913;SDS011;58179;48.776;9.124;2024-02-28T12:42:56;29.50;;;16.25;;
55913;SDS011;58179;48.776;9.124;2024-02-28T12:45:22;24.98;;;14.98;;
55913;SDS011;58179;48.776;9.124;2024-02-28T12:47:49;25.92;;;15.02;;
55913;SDS011;58179;48.776;9.124;2024-02-28T12:50:15;22.67;;;13.55;;
55913;SDS011;58179;48.776;9.124;2024-02-28T12:52:41;32.38;;;18.40;;
55913;SDS011;58179;48.776;9.124;2024-02-28T12:55:08;31.05;;;19.02;;
55913;SDS011;58179;48.776;9.124;2024-02-28T12:57:35;37.07;;;20.10;;
55913;SDS011;58179;48.776;9.124;2024-02-28T13:00:01;33.58;;;18.73;;
55913;SDS011;58179;48.776;9.124;2024-02-28T13:02:27;34.75;;;18.80;;
55913;SDS011;58179;48.776;9.124;2024-02-28T13:04:54;28.40;;;16.53;;
55913;SDS011;58179;48.776;9.124;2024-02-28T13:07:20;27.92;;;15.90;;
55913;SDS011;58179;48.776;9.124;2024-02-28T13:09:47;25.25;;;14.98;;
55913;SDS011;58179;48.776;9.124;2024-02-28T13:12:15;28.00;;;16.45;;
55913;SDS011;58179;48.776;9.124;2024-02-28T13:14:42;25.80;;;15.65;;
55913;SDS011;58179;48.776;9.124;2024-02-28T13:17:08;26.42;;;15.00;;
55913;SDS011;58179;48.776;9.124;2024-02-28T13:19:35;25.63;;;15.07;;
55913;SDS011;58179;48.776;9.124;2024-02-28T13:22:01;22.08;;;13.63;;
55913;SDS011;58179;48.776;9.124;2024-02-28T13:24:27;23.70;;;14.63;;
55913;SDS011;58179;48.776;9.124;2024-02-28T13:26:53;21.63;;;13.57;;
55913;SDS011;58179;48.776;9.124;2024-02-28T13:29:21;21.88;;;13.27;;
55913;SDS011;58179;48.776;9.124;2024-02-28T13:31:47;25.67;;;14.10;;
55913;SDS011;58179;48.776;9.124;2024-02-28T13:34:13;20.70;;;12.93;;
55913;SDS011;58179;48.776;9.124;2024-02-28T13:36:39;22.58;;;13.63;;
55913;SDS011;58179;48.776;9.124;2024-02-28T13:39:08;23.30;;;13.05;;
55913;SDS011;58179;48.776;9.124;2024-02-28T13:41:36;23.50;;;13.43;;
55913;SDS011;58179;48.776;9.124;2024-02-28T13:44:03;20.50;;;12.10;;
55913;SDS011;58179;48.776;9.124;2024-02-28T13:46:31;26.40;;;14.18;;
55913;SDS011;58179;48.776;9.124;2024-02-28T13:48:57;25.48;;;14.68;;
55913;SDS011;58179;48.776;9.124;2024-02-28T13:51:23;22.50;;;13.70;;
55913;SDS011;58179;48.776;9.124;2024-02-28T13:53:49;29.25;;;15.85;;
55913;SDS011;58179;48.776;9.124;2024-02-28T13:56:18;32.43;;;17.80;;
55913;SDS011;58179;48.776;9.124;2024-02-28T13:58:44;26.33;;;15.45;;
55913;SDS011;58179;48.776;9.124;2024-02-28T14:01:11;26.47;;;15.53;;
55913;SDS011;58179;48.776;9.124;2024-02-28T14:03:39;22.92;;;13.68;;
55913;SDS011;58179;48.776;9.124;2024-02-28T14:06:05;27.27;;;14.95;;
55913;SDS011;58179;48.776;9.124;2024-02-28T14:08:31;29.20;;;17.23;;
55913;SDS011;58179;48.776;9.124;2024-02-28T14:10:57;29.92;;;17.23;;
55913;SDS011;58179;48.776;9.124;2024-02-28T14:13:24;28.33;;;15.90;;
55913;SDS011;58179;48.776;9.124;2024-02-28T14:15:50;24.40;;;14.27;;
55913;SDS011;58179;48.776;9.124;2024-02-28T14:18:18;24.73;;;14.15;;
55913;SDS011;58179;48.776;9.124;2024-02-28T14:20:46;27.38;;;15.20;;
55913;SDS011;58179;48.776;9.124;2024-02-28T14:23:12;24.30;;;14.32;;
55913;SDS011;58179;48.776;9.124;2024-02-28T14:25:38;20.20;;;11.83;;
55913;SDS011;58179;48.776;9.124;2024-02-28T14:28:05;26.30;;;15.23;;
55913;SDS011;58179;48.776;9.124;2024-02-28T14:30:31;23.92;;;13.80;;
55913;SDS011;58179;48.776;9.124;2024-02-28T14:32:58;22.55;;;13.35;;
55913;SDS011;58179;48.776;9.124;2024-02-28T14:35:25;24.10;;;13.98;;
55913;SDS011;58179;48.776;9.124;2024-02-28T14:37:52;23.33;;;13.50;;
55913;SDS011;58179;48.776;9.124;2024-02-28T14:40:19;25.90;;;15.50;;
55913;SDS011;58179;48.776;9.124;2024-02-28T14:42:45;25.55;;;14.23;;
55913;SDS011;58179;48.776;9.124;2024-02-28T14:45:12;25.38;;;14.75;;
55913;SDS011;58179;48.776;9.124;2024-02-28T14:47:41;29.93;;;15.30;;
55913;SDS011;58179;48.776;9.124;2024-02-28T14:50:08;25.25;;;13.82;;
55913;SDS011;58179;48.776;9.124;2024-02-28T14:52:35;23.80;;;14.15;;
55913;SDS011;58179;48.776;9.124;2024-02-28T14:55:04;24.40;;;13.97;;
55913;SDS011;58179;48.776;9.124;2024-02-28T14:57:31;24.03;;;13.70;;
55913;SDS011;58179;48.776;9.124;2024-02-28T14:59:57;28.17;;;14.13;;
55913;SDS011;58179;48.776;9.124;2024-02-28T15:02:24;23.83;;;13.97;;
55913;SDS011;58179;48.776;9.124;2024-02-28T15:04:50;22.60;;;13.32;;
55913;SDS011;58179;48.776;9.124;2024-02-28T15:07:16;26.55;;;14.55;;
55913;SDS011;58179;48.776;9.124;2024-02-28T15:09:42;24.45;;;13.70;;
55913;SDS011;58179;48.776;9.124;2024-02-28T15:12:10;26.20;;;14.55;;
55913;SDS011;58179;48.776;9.124;2024-02-28T15:14:36;24.43;;;14.07;;
55913;SDS011;58179;48.776;9.124;2024-02-28T15:17:02;24.48;;;13.68;;
55913;SDS011;58179;48.776;9.124;2024-02-28T15:19:30;27.92;;;15.77;;
55913;SDS011;58179;48.776;9.124;2024-02-28T15:21:56;29.63;;;17.45;;
55913;SDS011;58179;48.776;9.124;2024-02-28T15:24:22;32.67;;;18.02;;
55913;SDS011;58179;48.776;9.124;2024-02-28T15:26:48;34.78;;;18.55;;
55913;SDS011;58179;48.776;9.124;2024-02-28T15:29:18;31.60;;;17.45;;
55913;SDS011;58179;48.776;9.124;2024-02-28T15:31:44;27.67;;;15.65;;
55913;SDS011;58179;48.776;9.124;2024-02-28T15:34:11;29.92;;;16.80;;
55913;SDS011;58179;48.776;9.124;2024-02-28T15:36:37;28.38;;;15.82;;
55913;SDS011;58179;48.776;9.124;2024-02-28T15:39:03;25.02;;;14.77;;
55913;SDS011;58179;48.776;9.124;2024-02-28T15:41:29;31.63;;;17.58;;
55913;SDS011;58179;48.776;9.124;2024-02-28T15:43:55;36.05;;;17.90;;
55913;SDS011;58179;48.776;9.124;2024-02-28T15:46:23;31.50;;;17.45;;
55913;SDS011;58179;48.776;9.124;2024-02-28T15:48:49;29.20;;;16.13;;
55913;SDS011;58179;48.776;9.124;2024-02-28T15:51:15;29.40;;;15.88;;
55913;SDS011;58179;48.776;9.124;2024-02-28T15:53:41;36.10;;;19.65;;
55913;SDS011;58179;48.776;9.124;2024-02-28T15:56:07;31.80;;;18.67;;
55913;SDS011;58179;48.776;9.124;2024-02-28T15:58:34;42.00;;;21.95;;
55913;SDS011;58179;48.776;9.124;2024-02-28T16:01:00;37.08;;;19.33;;
55913;SDS011;58179;48.776;9.124;2024-02-28T16:03:27;34.85;;;18.38;;
55913;SDS011;58179;48.776;9.124;2024-02-28T16:05:54;30.35;;;17.48;;
55913;SDS011;58179;48.776;9.124;2024-02-28T16:08:20;27.73;;;15.52;;
55913;SDS011;58179;48.776;9.124;2024-02-28T16:10:49;33.78;;;17.90;;
55913;SDS011;58179;48.776;9.124;2024-02-28T16:13:16;35.35;;;19.00;;
55913;SDS011;58179;48.776;9.124;2024-02-28T16:15:44;32.17;;;17.67;;
55913;SDS011;58179;48.776;9.124;2024-02-28T16:18:11;28.98;;;15.98;;
55913;SDS011;58179;48.776;9.124;2024-02-28T16:20:40;46.00;;;21.43;;
55913;SDS011;58179;48.776;9.124;2024-02-28T16:23:12;33.72;;;18.38;;
55913;SDS011;58179;48.776;9.124;2024-02-28T16:25:44;31.92;;;16.52;;
55913;SDS011;58179;48.776;9.124;2024-02-28T16:28:12;30.50;;;16.13;;
55913;SDS011;58179;48.776;9.124;2024-02-28T16:30:38;27.58;;;15.02;;
55913;SDS011;58179;48.776;9.124;2024-02-28T16:33:11;29.90;;;15.52;;
55913;SDS011;58179;48.776;9.124;2024-02-28T16:35:45;29.00;;;16.08;;
55913;SDS011;58179;48.776;9.124;2024-02-28T16:38:13;44.10;;;21.95;;
55913;SDS011;58179;48.776;9.124;2024-02-28T16:40:40;40.95;;;21.55;;
55913;SDS011;58179;48.776;9.124;2024-02-28T16:43:06;40.45;;;21.05;;
55913;SDS011;58179;48.776;9.124;2024-02-28T16:45:32;39.22;;;21.00;;
55913;SDS011;58179;48.776;9.124;2024-02-28T16:48:00;39.20;;;21.02;;
55913;SDS011;58179;48.776;9.124;2024-02-28T16:50:31;41.53;;;21.50;;
55913;SDS011;58179;48.776;9.124;2024-02-28T16:52:58;38.40;;;20.17;;
55913;SDS011;58179;48.776;9.124;2024-02-28T16:55:25;36.88;;;20.52;;
55913;SDS011;58179;48.776;9.124;2024-02-28T16:57:52;33.40;;;17.80;;
55913;SDS011;58179;48.776;9.124;2024-02-28T17:00:18;28.77;;;15.52;;
55913;SDS011;58179;48.776;9.124;2024-02-28T17:02:46;44.85;;;24.63;;
55913;SDS011;58179;48.776;9.124;2024-02-28T17:05:12;41.15;;;21.48;;
55913;SDS011;58179;48.776;9.124;2024-02-28T17:07:38;43.97;;;22.52;;
55913;SDS011;58179;48.776;9.124;2024-02-28T17:10:06;45.93;;;23.70;;
55913;SDS011;58179;48.776;9.124;2024-02-28T17:12:34;44.42;;;22.48;;
55913;SDS011;58179;48.776;9.124;2024-02-28T17:15:00;50.13;;;23.45;;
55913;SDS011;58179;48.776;9.124;2024-02-28T17:17:26;48.10;;;24.15;;
55913;SDS011;58179;48.776;9.124;2024-02-28T17:19:52;49.03;;;24.60;;
55913;SDS011;58179;48.776;9.124;2024-02-28T17:22:19;49.00;;;24.52;;
55913;SDS011;58179;48.776;9.124;2024-02-28T17:24:46;46.10;;;23.67;;
55913;SDS011;58179;48.776;9.124;2024-02-28T17:27:13;42.78;;;22.13;;
55913;SDS011;58179;48.776;9.124;2024-02-28T17:29:39;45.17;;;23.35;;
55913;SDS011;58179;48.776;9.124;2024-02-28T17:32:06;45.30;;;22.80;;
55913;SDS011;58179;48.776;9.124;2024-02-28T17:34:32;45.42;;;23.85;;
55913;SDS011;58179;48.776;9.124;2024-02-28T17:36:58;46.17;;;23.75;;
55913;SDS011;58179;48.776;9.124;2024-02-28T17:39:26;42.92;;;22.95;;
55913;SDS011;58179;48.776;9.124;2024-02-28T17:41:53;50.05;;;24.77;;